Time;durP1;ratioP1;P1;durP2;ratioP2;P2;SDS_P1;SDS_P2;PMS_P1;PMS_P2;Temp;Humidity;BMP_temperature;BMP_pressure;BME280_temperature;BME280_humidity;BME280_pressure;Samples;Min_cycle;Max_cycle;Signal;HPM_P1;HPM_P2
2023/05/22 00:00:48;;;;;;;34.03;27.73;;;;;;;;;;5074477;28;20165;-46
2023/05/22 00:03:13;;;;;;;35.83;28.15;;;18.80;99.90;;;;;;5074357;28;20257;-48
2023/05/22 00:05:39;;;;;;;33.58;26.75;;;18.70;99.90;;;;;;5073830;28;20292;-46
2023/05/22 00:08:10;;;;;;;36.55;28.27;;;18.80;99.90;;;;;;5074117;28;20223;-47
2023/05/22 00:10:37;;;;;;;36.00;28.63;;;18.80;99.90;;;;;;5074130;28;20166;-46
2023/05/22 00:13:03;;;;;;;34.58;27.80;;;;;;;;;;5073777;28;20189;-46
2023/05/22 00:15:28;;;;;;;32.95;25.40;;;18.80;99.90;;;;;;5073789;28;20675;-46
2023/05/22 00:17:54;;;;;;;33.22;27.48;;;18.70;99.90;;;;;;5073703;28;20211;-51
2023/05/22 00:20:19;;;;;;;36.55;27.20;;;18.70;99.90;;;;;;5073781;28;20170;-51
2023/05/22 00:22:47;;;;;;;36.17;27.65;;;18.60;99.90;;;;;;5074152;28;20627;-50
2023/05/22 00:25:16;;;;;;;35.58;28.38;;;18.60;99.90;;;;;;5072622;28;20174;-50
2023/05/22 00:27:41;;;;;;;40.20;30.13;;;18.60;99.90;;;;;;5073539;28;20177;-46
2023/05/22 00:30:07;;;;;;;39.55;30.95;;;18.50;99.90;;;;;;5073526;28;20174;-47
2023/05/22 00:32:33;;;;;;;35.45;28.40;;;18.50;99.90;;;;;;5073463;28;20181;-46
2023/05/22 00:34:58;;;;;;;34.35;28.33;;;18.40;99.90;;;;;;5073324;28;20248;-46
2023/05/22 00:37:24;;;;;;;34.67;28.05;;;18.40;99.90;;;;;;5073337;28;20173;-46
2023/05/22 00:39:49;;;;;;;36.63;28.25;;;18.40;99.90;;;;;;5073361;28;20346;-46
2023/05/22 00:42:16;;;;;;;37.55;29.55;;;18.40;99.90;;;;;;5073763;28;20193;-46
2023/05/22 00:44:42;;;;;;;38.72;29.85;;;18.30;99.90;;;;;;5073116;28;20170;-47
2023/05/22 00:47:07;;;;;;;38.65;30.27;;;18.50;99.90;;;;;;5073494;28;20166;-46
2023/05/22 00:49:33;;;;;;;36.78;29.73;;;18.30;99.90;;;;;;5073141;28;20627;-46
2023/05/22 00:51:59;;;;;;;37.47;28.25;;;18.30;99.90;;;;;;5073110;28;20170;-46
2023/05/22 00:54:25;;;;;;;37.75;29.02;;;18.20;99.90;;;;;;5072995;28;20675;-46
2023/05/22 00:56:51;;;;;;;39.47;30.00;;;18.20;99.90;;;;;;5072959;28;20192;-47
2023/05/22 00:59:16;;;;;;;40.22;29.20;;;18.30;99.90;;;;;;5073622;28;20174;-47
2023/05/22 01:01:43;;;;;;;40.83;29.80;;;18.30;99.90;;;;;;5073581;28;20564;-47
2023/05/22 01:04:10;;;;;;;38.42;30.00;;;18.20;99.90;;;;;;5073063;28;20173;-46
2023/05/22 01:06:36;;;;;;;39.80;29.33;;;18.30;99.90;;;;;;5072633;28;20214;-46
2023/05/22 01:09:03;;;;;;;34.20;26.65;;;18.20;99.90;;;;;;5072746;28;20658;-46
2023/05/22 01:11:38;;;;;;;35.90;28.13;;;18.20;99.90;;;;;;5072661;28;20174;-46
2023/05/22 01:14:56;;;;;;;37.88;27.42;;;18.20;99.90;;;;;;5072630;28;20204;-46
2023/05/22 01:17:44;;;;;;;34.50;27.90;;;18.10;99.90;;;;;;5062716;28;20198;-46
2023/05/22 01:20:13;;;;;;;30.52;25.67;;;18.20;99.90;;;;;;5072818;28;20216;-47
2023/05/22 01:23:15;;;;;;;35.55;26.23;;;18.20;99.90;;;;;;5072389;28;20249;-46
2023/05/22 01:26:27;;;;;;;32.65;25.23;;;18.10;99.90;;;;;;5072382;28;20154;-47
2023/05/22 01:29:24;;;;;;;32.00;27.05;;;18.10;99.90;;;;;;5035854;28;20209;-50
2023/05/22 01:31:53;;;;;;;33.30;24.30;;;18.10;99.90;;;;;;5072328;28;20257;-51
2023/05/22 01:34:20;;;;;;;29.40;24.13;;;18.10;99.90;;;;;;5072147;28;20206;-47
2023/05/22 01:36:49;;;;;;;31.95;24.30;;;18.00;99.90;;;;;;5072350;28;20169;-46
2023/05/22 01:39:16;;;;;;;32.53;24.92;;;18.00;99.90;;;;;;5072587;28;20174;-51
2023/05/22 01:41:42;;;;;;;34.22;24.42;;;18.00;99.90;;;;;;5072461;28;20177;-50
2023/05/22 01:44:07;;;;;;;29.98;24.15;;;18.00;99.90;;;;;;5072110;28;20157;-50
2023/05/22 01:46:33;;;;;;;31.92;24.63;;;17.90;99.90;;;;;;5072002;28;20170;-49
2023/05/22 01:48:58;;;;;;;32.22;23.80;;;17.90;99.90;;;;;;5072288;28;20162;-51
2023/05/22 01:52:04;;;;;;;34.38;25.38;;;17.90;99.90;;;;;;5071992;28;20170;-47
2023/05/22 01:54:34;;;;;;;32.20;23.00;;;17.90;99.90;;;;;;5072121;28;20208;-47
2023/05/22 01:57:06;;;;;;;29.65;21.77;;;17.90;99.90;;;;;;5072111;28;20174;-50
2023/05/22 01:59:47;;;;;;;30.10;23.58;;;17.80;99.90;;;;;;5070608;28;20172;-47
2023/05/22 02:02:16;;;;;;;30.00;23.42;;;17.90;99.90;;;;;;5072420;28;20166;-50
2023/05/22 02:04:45;;;;;;;28.98;22.73;;;17.90;99.90;;;;;;5072378;28;20228;-51
2023/05/22 02:07:12;;;;;;;30.52;22.92;;;17.80;99.90;;;;;;5071499;28;20607;-50
2023/05/22 02:09:39;;;;;;;29.77;22.50;;;17.80;99.90;;;;;;5071681;28;20513;-51
2023/05/22 02:12:06;;;;;;;29.90;23.60;;;17.80;99.90;;;;;;5071653;28;20158;-51
2023/05/22 02:14:32;;;;;;;28.60;22.58;;;17.80;99.90;;;;;;5071483;28;20247;-46
2023/05/22 02:17:00;;;;;;;27.23;22.90;;;17.80;99.90;;;;;;5071842;28;20170;-50
2023/05/22 02:19:26;;;;;;;25.65;20.90;;;17.80;99.90;;;;;;5070321;28;20253;-51
2023/05/22 02:21:52;;;;;;;24.27;21.30;;;17.80;99.90;;;;;;5071500;28;20201;-49
2023/05/22 02:24:18;;;;;;;22.33;19.92;;;17.70;99.90;;;;;;5071730;28;20192;-50
2023/05/22 02:26:44;;;;;;;25.83;20.63;;;17.60;99.90;;;;;;5071908;28;20233;-49
2023/05/22 02:29:11;;;;;;;26.80;20.63;;;17.60;99.90;;;;;;5071725;28;20170;-49
2023/05/22 02:31:37;;;;;;;25.65;20.23;;;17.60;99.90;;;;;;5071431;28;20166;-51
2023/05/22 02:34:04;;;;;;;28.50;20.85;;;17.60;99.90;;;;;;5071395;28;20190;-48
2023/05/22 02:36:30;;;;;;;24.85;19.95;;;17.60;99.90;;;;;;5071382;28;20566;-50
2023/05/22 02:38:57;;;;;;;21.75;18.73;;;17.50;99.90;;;;;;5071400;28;20170;-49
2023/05/22 02:41:22;;;;;;;24.08;18.27;;;17.40;99.90;;;;;;5071623;28;20182;-46
2023/05/22 02:43:48;;;;;;;20.90;17.63;;;17.40;99.90;;;;;;5071274;28;20276;-46
2023/05/22 02:46:13;;;;;;;26.85;18.05;;;17.20;99.90;;;;;;5071713;28;20173;-46
2023/05/22 02:48:39;;;;;;;23.63;17.48;;;17.30;99.90;;;;;;5073301;28;20166;-46
2023/05/22 02:51:05;;;;;;;25.45;17.60;;;17.20;99.90;;;;;;5075404;28;20219;-46
2023/05/22 02:53:32;;;;;;;22.98;16.40;;;17.20;99.90;;;;;;5075290;28;20583;-46
2023/05/22 02:55:58;;;;;;;23.80;16.55;;;17.20;99.90;;;;;;5075574;28;20180;-46
2023/05/22 02:58:24;;;;;;;19.45;16.00;;;17.20;99.90;;;;;;5075271;28;20170;-46
2023/05/22 03:00:51;;;;;;;21.40;15.80;;;17.00;99.90;;;;;;5075259;28;20162;-46
2023/05/22 03:03:17;;;;;;;24.75;18.08;;;16.90;99.90;;;;;;5075361;28;20166;-46
2023/05/22 03:05:43;;;;;;;28.88;18.45;;;17.00;99.90;;;;;;5075340;28;20529;-47
2023/05/22 03:08:09;;;;;;;26.30;17.40;;;17.00;99.90;;;;;;5075359;28;20224;-46
2023/05/22 03:10:35;;;;;;;29.45;17.80;;;16.90;99.90;;;;;;5075270;28;20201;-47
2023/05/22 03:13:00;;;;;;;30.88;18.42;;;16.90;99.90;;;;;;5075050;28;20202;-46
2023/05/22 03:15:26;;;;;;;23.88;18.00;;;16.70;99.90;;;;;;5074933;28;20267;-46
2023/05/22 03:17:51;;;;;;;23.30;16.92;;;16.90;99.90;;;;;;5074885;28;20190;-47
2023/05/22 03:20:17;;;;;;;21.35;16.48;;;16.90;99.90;;;;;;5074844;28;20174;-47
2023/05/22 03:22:44;;;;;;;22.33;15.82;;;;;;;;;;5075218;28;20165;-46
2023/05/22 03:25:10;;;;;;;24.25;17.42;;;16.70;99.90;;;;;;5074748;28;20170;-47
2023/05/22 03:27:36;;;;;;;21.27;16.88;;;;;;;;;;5074621;28;20154;-46
2023/05/22 03:30:02;;;;;;;24.17;18.25;;;16.60;99.90;;;;;;5074634;28;20170;-46
2023/05/22 03:32:28;;;;;;;22.85;17.27;;;16.60;99.90;;;;;;5074601;28;20162;-46
2023/05/22 03:34:53;;;;;;;24.15;19.15;;;16.50;99.90;;;;;;5073249;28;20201;-46
2023/05/22 03:37:19;;;;;;;27.27;18.35;;;16.50;99.90;;;;;;5074506;28;20212;-46
2023/05/22 03:39:45;;;;;;;25.92;20.67;;;16.50;99.90;;;;;;5074798;28;20535;-46
2023/05/22 03:42:12;;;;;;;27.52;19.42;;;16.40;99.90;;;;;;5074301;28;20174;-46
2023/05/22 03:44:38;;;;;;;25.48;20.65;;;16.40;99.90;;;;;;5074228;28;20166;-47
2023/05/22 03:47:04;;;;;;;26.10;21.98;;;16.40;99.90;;;;;;5074278;28;20215;-47
2023/05/22 03:49:29;;;;;;;26.30;22.65;;;16.40;99.90;;;;;;5074288;28;20162;-46
2023/05/22 03:51:55;;;;;;;30.33;23.27;;;16.30;99.90;;;;;;5074224;28;20166;-46
2023/05/22 03:54:21;;;;;;;29.05;23.10;;;16.30;99.90;;;;;;5074054;28;20209;-46
2023/05/22 03:56:46;;;;;;;30.02;24.10;;;;;;;;;;5074144;28;20174;-47
2023/05/22 03:59:12;;;;;;;31.00;24.80;;;16.20;99.90;;;;;;5074257;28;20531;-46
2023/05/22 04:01:38;;;;;;;31.73;24.75;;;16.20;99.90;;;;;;5072802;28;20176;-46
2023/05/22 04:04:04;;;;;;;32.70;24.83;;;;;;;;;;5074197;28;20173;-46
2023/05/22 04:06:31;;;;;;;29.65;23.98;;;16.20;99.90;;;;;;5073805;28;20701;-47
2023/05/22 04:08:58;;;;;;;35.28;25.48;;;16.20;99.90;;;;;;5074064;28;20212;-46
2023/05/22 04:11:23;;;;;;;35.33;24.70;;;16.20;99.90;;;;;;5073796;28;20643;-46
2023/05/22 04:13:52;;;;;;;32.65;24.02;;;16.40;99.90;;;;;;5073742;28;20174;-46
2023/05/22 04:16:17;;;;;;;31.50;23.35;;;16.20;99.90;;;;;;5073750;28;20166;-45
2023/05/22 04:18:43;;;;;;;30.55;23.13;;;16.10;99.90;;;;;;5074170;28;20166;-46
2023/05/22 04:21:09;;;;;;;34.47;24.23;;;16.10;99.90;;;;;;5073690;28;20180;-46
2023/05/22 04:23:34;;;;;;;32.72;23.33;;;16.20;99.90;;;;;;5072461;28;20166;-46
2023/05/22 04:26:01;;;;;;;33.65;25.05;;;16.20;99.90;;;;;;5073539;28;20510;-47
2023/05/22 04:28:29;;;;;;;33.25;22.73;;;16.20;99.90;;;;;;5073549;28;20158;-46
2023/05/22 04:30:56;;;;;;;29.20;22.73;;;;;;;;;;5073712;28;20181;-47
2023/05/22 04:33:23;;;;;;;32.72;25.73;;;16.20;99.90;;;;;;5073652;28;20215;-47
2023/05/22 04:35:49;;;;;;;32.17;23.08;;;16.20;99.90;;;;;;5073238;28;20201;-47
2023/05/22 04:38:17;;;;;;;28.70;22.30;;;16.20;99.90;;;;;;5073916;28;20561;-47
2023/05/22 04:40:43;;;;;;;30.45;22.98;;;16.20;99.90;;;;;;5073898;28;20277;-46
2023/05/22 04:43:10;;;;;;;31.92;23.27;;;16.30;99.90;;;;;;5073225;28;20772;-46
2023/05/22 04:45:36;;;;;;;34.30;24.33;;;16.30;99.90;;;;;;5073503;28;20845;-46
2023/05/22 04:48:01;;;;;;;32.08;23.33;;;16.30;99.90;;;;;;5073156;28;20266;-47
2023/05/22 04:50:31;;;;;;;27.60;21.42;;;16.30;99.90;;;;;;5073136;28;20166;-46
2023/05/22 04:52:58;;;;;;;30.40;22.67;;;16.30;99.90;;;;;;5073105;28;20602;-48
2023/05/22 04:55:24;;;;;;;34.78;23.85;;;16.20;99.90;;;;;;5073114;28;20209;-48
2023/05/22 04:57:51;;;;;;;29.58;22.70;;;16.20;99.90;;;;;;5073020;28;20188;-46
2023/05/22 05:00:17;;;;;;;32.97;23.88;;;16.20;99.90;;;;;;5073145;28;20581;-48
2023/05/22 05:02:43;;;;;;;36.35;24.88;;;16.20;99.90;;;;;;5073291;28;20174;-47
2023/05/22 05:05:08;;;;;;;35.28;24.75;;;16.20;99.90;;;;;;5072840;28;20169;-46
2023/05/22 05:07:38;;;;;;;39.17;25.85;;;16.20;99.90;;;;;;5072436;28;20241;-47
2023/05/22 05:10:05;;;;;;;38.53;25.85;;;16.20;99.90;;;;;;5072460;28;20168;-47
2023/05/22 05:12:30;;;;;;;44.38;26.40;;;16.30;99.90;;;;;;5072251;28;20208;-46
2023/05/22 05:14:56;;;;;;;45.35;26.77;;;16.20;99.90;;;;;;5072499;28;20241;-47
2023/05/22 05:17:22;;;;;;;36.70;25.48;;;16.20;99.90;;;;;;5072517;28;20196;-46
2023/05/22 05:19:48;;;;;;;46.08;26.48;;;16.20;99.90;;;;;;5072863;28;20174;-46
2023/05/22 05:22:13;;;;;;;41.63;28.52;;;16.20;99.90;;;;;;5072896;28;20518;-46
2023/05/22 05:24:39;;;;;;;43.33;29.77;;;16.20;99.90;;;;;;5072656;28;20239;-46
2023/05/22 05:27:05;;;;;;;48.50;27.90;;;16.30;99.90;;;;;;5072401;28;20169;-46
2023/05/22 05:29:31;;;;;;;45.72;29.92;;;;;;;;;;5072348;28;20698;-46
2023/05/22 05:31:56;;;;;;;50.08;29.42;;;16.20;99.90;;;;;;5072250;28;20166;-46
2023/05/22 05:34:22;;;;;;;46.28;29.48;;;16.30;99.90;;;;;;5072147;28;20190;-48
2023/05/22 05:36:47;;;;;;;48.75;31.20;;;16.20;99.90;;;;;;5072167;28;20193;-46
2023/05/22 05:39:13;;;;;;;46.47;31.38;;;16.30;99.90;;;;;;5072476;28;20180;-47
2023/05/22 05:41:38;;;;;;;52.10;30.42;;;16.40;99.90;;;;;;5070986;28;20173;-47
2023/05/22 05:44:04;;;;;;;50.97;30.45;;;16.30;99.90;;;;;;5072066;28;20172;-46
2023/05/22 05:46:29;;;;;;;54.75;30.98;;;16.40;99.90;;;;;;5070861;28;20170;-46
2023/05/22 05:48:56;;;;;;;49.35;30.52;;;16.40;99.90;;;;;;5072076;28;20165;-46
2023/05/22 05:51:22;;;;;;;50.03;31.58;;;16.50;99.90;;;;;;5071915;28;20259;-46
2023/05/22 05:53:48;;;;;;;51.65;29.52;;;16.50;99.90;;;;;;5071843;28;20170;-46
2023/05/22 05:56:14;;;;;;;44.47;28.08;;;16.50;99.90;;;;;;5072310;28;20170;-47
2023/05/22 05:58:39;;;;;;;49.25;30.00;;;16.40;99.90;;;;;;5071759;28;20164;-46
2023/05/22 06:01:05;;;;;;;47.90;28.85;;;16.50;99.90;;;;;;5071738;28;20177;-47
2023/05/22 06:03:31;;;;;;;42.63;26.30;;;16.50;99.90;;;;;;5071696;28;20253;-46
2023/05/22 06:05:58;;;;;;;43.88;26.77;;;16.60;99.90;;;;;;5071649;28;20213;-46
2023/05/22 06:08:23;;;;;;;39.10;26.80;;;16.70;99.90;;;;;;5071631;28;20185;-46
2023/05/22 06:10:49;;;;;;;43.47;28.15;;;16.70;99.90;;;;;;5071640;28;20166;-46
2023/05/22 06:13:14;;;;;;;39.35;27.52;;;16.90;99.90;;;;;;5072234;28;20631;-46
2023/05/22 06:15:40;;;;;;;43.15;27.77;;;16.80;99.90;;;;;;5070267;28;20643;-46
2023/05/22 06:18:05;;;;;;;42.20;28.27;;;16.80;99.90;;;;;;5071556;28;20165;-46
2023/05/22 06:20:31;;;;;;;39.20;27.08;;;16.80;99.90;;;;;;5071490;28;20688;-46
2023/05/22 06:22:57;;;;;;;44.55;27.63;;;16.90;99.90;;;;;;5071465;28;20519;-46
2023/05/22 06:25:24;;;;;;;36.78;27.02;;;16.90;99.90;;;;;;5071477;28;20177;-46
2023/05/22 06:27:50;;;;;;;38.53;26.48;;;16.90;99.90;;;;;;5071419;28;20185;-46
2023/05/22 06:30:16;;;;;;;41.55;28.13;;;16.90;99.90;;;;;;5071597;28;20639;-46
2023/05/22 06:32:42;;;;;;;39.78;28.10;;;17.00;99.90;;;;;;5071849;28;20170;-46
2023/05/22 06:35:09;;;;;;;42.83;28.52;;;17.10;99.90;;;;;;5071297;28;20209;-46
2023/05/22 06:37:35;;;;;;;40.97;27.00;;;17.20;99.90;;;;;;5071351;28;20209;-46
2023/05/22 06:40:01;;;;;;;37.45;27.05;;;17.30;99.90;;;;;;5071590;28;20188;-46
2023/05/22 06:42:27;;;;;;;42.75;27.38;;;;;;;;;;5071387;28;20596;-46
2023/05/22 06:44:52;;;;;;;43.55;27.88;;;17.40;99.90;;;;;;5071566;28;20170;-46
2023/05/22 06:47:18;;;;;;;40.63;27.45;;;17.40;99.90;;;;;;5071321;28;20180;-47
2023/05/22 06:49:44;;;;;;;46.78;29.05;;;17.40;99.90;;;;;;5071776;28;20257;-50
2023/05/22 06:52:09;;;;;;;39.13;26.27;;;17.20;99.90;;;;;;5071300;28;20173;-47
2023/05/22 06:54:35;;;;;;;37.83;28.65;;;17.40;99.90;;;;;;5069775;28;20213;-47
2023/05/22 06:57:02;;;;;;;35.88;25.40;;;;;;;;;;5071239;28;20162;-46
2023/05/22 06:59:29;;;;;;;31.13;24.65;;;17.40;99.90;;;;;;5071449;28;20549;-47
2023/05/22 07:01:55;;;;;;;34.78;25.83;;;17.40;99.90;;;;;;5071138;28;20168;-47
2023/05/22 07:04:20;;;;;;;34.85;25.70;;;17.30;99.90;;;;;;5070913;28;20170;-47
2023/05/22 07:06:47;;;;;;;36.28;25.92;;;17.30;99.90;;;;;;5070926;28;20225;-47
2023/05/22 07:09:14;;;;;;;33.05;24.40;;;17.40;99.90;;;;;;5071735;28;20236;-48
2023/05/22 07:11:41;;;;;;;37.58;24.58;;;17.70;99.90;;;;;;5071287;28;20166;-46
2023/05/22 07:14:07;;;;;;;32.50;24.25;;;17.90;99.90;;;;;;5071007;28;20200;-46
2023/05/22 07:16:33;;;;;;;35.95;24.55;;;18.00;99.90;;;;;;5071217;28;20177;-46
2023/05/22 07:18:58;;;;;;;29.48;23.17;;;18.00;99.90;;;;;;5071267;28;20170;-46
2023/05/22 07:21:24;;;;;;;33.78;24.83;;;18.00;99.90;;;;;;5070894;28;20691;-48
2023/05/22 07:23:51;;;;;;;30.27;25.02;;;18.20;99.90;;;;;;5071079;28;20647;-46
2023/05/22 07:26:17;;;;;;;34.35;25.50;;;18.30;99.90;;;;;;5070996;28;20162;-47
2023/05/22 07:28:42;;;;;;;35.72;24.05;;;18.20;99.90;;;;;;5071503;28;20166;-47
2023/05/22 07:31:08;;;;;;;34.95;24.67;;;18.10;99.90;;;;;;5071136;28;20216;-46
2023/05/22 07:33:34;;;;;;;34.03;25.67;;;;;;;;;;5070872;28;20505;-47
2023/05/22 07:35:59;;;;;;;35.70;24.98;;;18.20;99.90;;;;;;5074704;28;20313;-47
2023/05/22 07:38:25;;;;;;;34.70;24.10;;;18.20;99.90;;;;;;5074741;28;20260;-46
2023/05/22 07:40:51;;;;;;;31.90;24.63;;;18.00;99.90;;;;;;5074503;28;20242;-47
2023/05/22 07:43:16;;;;;;;29.33;23.50;;;17.90;99.90;;;;;;5074374;28;20534;-47
2023/05/22 07:45:42;;;;;;;37.33;26.70;;;18.00;99.90;;;;;;5074783;28;20178;-48
2023/05/22 07:48:08;;;;;;;41.88;28.55;;;17.90;99.90;;;;;;5074580;28;20279;-46
2023/05/22 07:50:34;;;;;;;38.83;27.73;;;17.90;99.90;;;;;;5074330;28;20194;-46
2023/05/22 07:53:00;;;;;;;38.55;28.00;;;18.10;99.90;;;;;;5074253;28;20171;-47
2023/05/22 07:55:25;;;;;;;37.95;26.00;;;18.20;99.90;;;;;;5074308;28;20267;-46
2023/05/22 07:57:51;;;;;;;39.08;26.30;;;18.20;99.90;;;;;;5072897;28;20508;-46
2023/05/22 08:00:17;;;;;;;42.80;29.00;;;18.20;99.90;;;;;;5072798;28;20166;-46
2023/05/22 08:02:43;;;;;;;40.13;26.00;;;18.20;99.90;;;;;;5074445;28;20166;-50
2023/05/22 08:05:09;;;;;;;37.75;25.92;;;18.30;99.90;;;;;;5074266;28;20223;-48
2023/05/22 08:07:35;;;;;;;37.17;26.40;;;18.40;99.90;;;;;;5073588;28;20698;-46
2023/05/22 08:10:03;;;;;;;39.17;28.83;;;18.40;99.90;;;;;;5074043;28;20166;-47
2023/05/22 08:12:28;;;;;;;39.92;28.40;;;18.30;99.90;;;;;;5074000;28;20291;-46
2023/05/22 08:14:54;;;;;;;36.58;27.48;;;18.50;99.90;;;;;;5073884;28;20205;-49
2023/05/22 08:17:19;;;;;;;39.20;24.67;;;18.40;99.90;;;;;;5073776;28;20249;-47
2023/05/22 08:19:45;;;;;;;35.72;26.33;;;18.50;99.90;;;;;;5073767;28;20201;-48
2023/05/22 08:22:10;;;;;;;35.85;28.55;;;18.40;99.90;;;;;;5074343;28;20170;-46
2023/05/22 08:24:36;;;;;;;44.78;27.55;;;18.60;99.90;;;;;;5074030;28;20641;-46
2023/05/22 08:27:03;;;;;;;40.80;27.45;;;18.70;99.90;;;;;;5073542;28;20162;-47
2023/05/22 08:29:28;;;;;;;40.22;27.30;;;18.70;99.90;;;;;;5073531;28;20311;-47
2023/05/22 08:31:55;;;;;;;40.85;28.30;;;18.50;99.90;;;;;;5073703;28;20245;-47
2023/05/22 08:34:21;;;;;;;42.63;29.30;;;18.50;99.90;;;;;;5073551;28;20206;-48
2023/05/22 08:36:48;;;;;;;45.38;31.00;;;18.70;99.90;;;;;;5073373;28;20166;-47
2023/05/22 08:39:14;;;;;;;42.08;30.35;;;;;;;;;;5073713;28;20162;-46
2023/05/22 08:41:42;;;;;;;44.50;31.00;;;18.60;99.90;;;;;;5073864;28;20163;-47
2023/05/22 08:44:09;;;;;;;44.40;32.00;;;18.40;99.90;;;;;;5073306;28;20521;-47
2023/05/22 08:46:36;;;;;;;44.80;30.42;;;18.40;99.90;;;;;;5072076;28;20239;-46
2023/05/22 08:49:04;;;;;;;44.00;29.52;;;18.60;99.90;;;;;;5073075;28;20193;-48
2023/05/22 08:51:33;;;;;;;42.10;29.83;;;18.60;99.90;;;;;;5073066;28;20188;-47
2023/05/22 08:54:03;;;;;;;46.08;31.38;;;18.60;99.90;;;;;;5073081;28;20158;-47
2023/05/22 08:56:30;;;;;;;51.10;32.38;;;18.60;99.90;;;;;;5072943;28;20178;-48
2023/05/22 08:58:57;;;;;;;48.88;33.67;;;18.80;99.90;;;;;;5073190;28;20580;-46
2023/05/22 09:01:23;;;;;;;54.55;32.65;;;18.90;99.90;;;;;;5073178;28;20247;-47
2023/05/22 09:03:50;;;;;;;48.25;35.20;;;18.80;99.90;;;;;;5072979;28;20162;-47
2023/05/22 09:06:16;;;;;;;51.58;33.20;;;18.70;99.90;;;;;;5072812;28;20274;-48
2023/05/22 09:08:42;;;;;;;55.20;36.70;;;;;;;;;;5073421;28;20170;-46
2023/05/22 09:11:09;;;;;;;57.53;34.20;;;18.80;99.90;;;;;;5072611;28;20166;-47
2023/05/22 09:13:38;;;;;;;50.58;34.13;;;18.70;99.90;;;;;;5073047;28;20292;-46
2023/05/22 09:16:10;;;;;;;52.42;35.38;;;18.70;99.90;;;;;;5072524;28;20206;-47
2023/05/22 09:18:41;;;;;;;50.80;33.85;;;18.70;99.90;;;;;;5072446;28;20180;-49
2023/05/22 09:21:07;;;;;;;56.78;36.00;;;18.90;99.90;;;;;;5072558;28;20315;-50
2023/05/22 09:23:33;;;;;;;62.28;34.97;;;;;;;;;;5072076;28;20162;-51
2023/05/22 09:26:00;;;;;;;57.67;36.72;;;18.90;99.90;;;;;;5072453;28;20215;-49
2023/05/22 09:28:27;;;;;;;61.50;35.30;;;19.20;99.90;;;;;;5072317;28;20248;-51
2023/05/22 09:30:54;;;;;;;51.67;34.55;;;19.10;99.90;;;;;;5072601;28;20174;-50
2023/05/22 09:33:22;;;;;;;56.75;36.38;;;19.10;99.90;;;;;;5072247;28;20240;-47
2023/05/22 09:35:51;;;;;;;57.88;34.53;;;19.20;99.90;;;;;;5072223;28;20201;-46
2023/05/22 09:38:16;;;;;;;53.00;33.88;;;19.20;99.90;;;;;;5071044;28;20227;-46
2023/05/22 09:40:42;;;;;;;55.30;35.40;;;19.40;99.90;;;;;;5072488;28;20631;-47
2023/05/22 09:43:08;;;;;;;51.50;32.67;;;19.40;99.90;;;;;;5072114;28;20174;-46
2023/05/22 09:45:35;;;;;;;49.65;34.47;;;19.50;99.90;;;;;;5071977;28;20166;-47
2023/05/22 09:48:02;;;;;;;55.60;36.13;;;19.40;99.90;;;;;;5071959;28;20578;-47
2023/05/22 09:50:27;;;;;;;52.53;36.25;;;19.40;99.90;;;;;;5072263;28;20178;-47
2023/05/22 09:52:53;;;;;;;53.00;36.42;;;;;;;;;;5071501;28;20557;-46
2023/05/22 09:55:22;;;;;;;53.13;36.15;;;19.50;99.90;;;;;;5071312;28;20211;-46
2023/05/22 09:57:51;;;;;;;54.88;36.13;;;19.40;99.90;;;;;;5070948;28;20161;-47
2023/05/22 10:00:18;;;;;;;58.17;32.53;;;19.50;99.90;;;;;;5071118;28;20209;-48
2023/05/22 10:02:46;;;;;;;55.10;36.95;;;19.40;99.90;;;;;;5071433;28;20556;-47
2023/05/22 10:05:20;;;;;;;55.78;37.90;;;19.30;99.90;;;;;;5071121;28;20591;-47
2023/05/22 10:07:50;;;;;;;52.08;36.50;;;19.20;99.90;;;;;;5070662;28;20213;-48
2023/05/22 10:10:25;;;;;;;56.08;37.17;;;18.90;99.90;;;;;;5070698;28;20639;-46
2023/05/22 10:12:55;;;;;;;66.85;39.08;;;19.10;99.90;;;;;;5071699;28;20173;-47
2023/05/22 10:15:21;;;;;;;57.92;38.47;;;19.20;99.90;;;;;;5071526;28;20214;-46
2023/05/22 10:17:48;;;;;;;61.28;39.10;;;19.20;99.90;;;;;;5071590;28;20177;-48
2023/05/22 10:20:15;;;;;;;54.55;36.45;;;19.40;99.90;;;;;;5071847;28;20170;-48
2023/05/22 10:22:41;;;;;;;56.50;35.50;;;19.40;99.90;;;;;;5071956;28;20597;-47
2023/05/22 10:25:07;;;;;;;54.17;37.08;;;19.50;99.90;;;;;;5071726;28;20173;-51
2023/05/22 10:27:33;;;;;;;53.55;36.92;;;19.60;99.90;;;;;;5071290;28;20670;-50
2023/05/22 10:30:20;;;;;;;53.72;35.80;;;19.40;99.90;;;;;;5071479;28;20162;-51
2023/05/22 10:33:10;;;;;;;59.53;37.95;;;19.40;99.90;;;;;;5071427;28;20166;-50
2023/05/22 10:35:54;;;;;;;56.58;36.00;;;19.70;99.90;;;;;;5070826;28;20694;-51
2023/05/22 10:38:25;;;;;;;54.63;37.92;;;19.60;99.90;;;;;;5071585;28;20174;-51
2023/05/22 10:40:51;;;;;;;55.78;37.90;;;19.70;99.90;;;;;;5071322;28;20158;-52
2023/05/22 10:43:16;;;;;;;53.47;37.22;;;20.00;99.90;;;;;;5069974;28;20183;-50
2023/05/22 10:45:45;;;;;;;58.53;38.72;;;20.10;99.90;;;;;;5071874;28;20261;-50
2023/05/22 10:48:11;;;;;;;50.67;35.38;;;;;;;;;;5071591;28;20245;-51
2023/05/22 10:50:38;;;;;;;61.58;40.42;;;20.20;99.90;;;;;;5071271;28;20162;-50
2023/05/22 10:53:27;;;;;;;55.38;35.33;;;20.30;99.90;;;;;;5071137;28;20667;-47
2023/05/22 10:55:58;;;;;;;53.13;38.60;;;20.30;99.90;;;;;;5071115;28;20206;-50
2023/05/22 10:58:25;;;;;;;54.88;37.90;;;20.40;99.90;;;;;;5071484;28;20197;-50
2023/05/22 11:01:18;;;;;;;57.30;37.03;;;20.50;99.90;;;;;;5071434;28;20177;-48
2023/05/22 11:04:00;;;;;;;54.30;36.78;;;20.80;99.90;;;;;;5070442;28;20232;-47
2023/05/22 11:06:41;;;;;;;54.22;38.42;;;20.70;99.90;;;;;;5070806;28;20296;-48
2023/05/22 11:09:28;;;;;;;62.38;37.47;;;20.90;99.90;;;;;;5071914;28;20157;-47
2023/05/22 11:12:15;;;;;;;54.40;35.92;;;;;;;;;;5075044;28;20169;-47
2023/05/22 11:14:41;;;;;;;52.40;35.97;;;20.80;99.90;;;;;;5075507;28;20213;-46
2023/05/22 11:17:07;;;;;;;57.63;38.10;;;20.80;99.90;;;;;;5074845;28;20650;-46
2023/05/22 11:19:33;;;;;;;59.70;38.83;;;21.10;99.90;;;;;;5075039;28;20169;-47
2023/05/22 11:22:02;;;;;;;59.00;38.75;;;21.40;99.90;;;;;;5074996;28;20573;-46
2023/05/22 11:24:33;;;;;;;58.80;39.47;;;21.30;99.90;;;;;;5074446;28;20624;-46
2023/05/22 11:27:17;;;;;;;56.78;38.47;;;21.20;99.90;;;;;;5074688;28;20169;-47
2023/05/22 11:29:43;;;;;;;56.95;38.47;;;21.20;99.90;;;;;;5075045;28;20158;-46
2023/05/22 11:32:14;;;;;;;57.03;37.42;;;21.20;99.90;;;;;;5075223;28;20173;-47
2023/05/22 11:34:39;;;;;;;56.60;38.58;;;21.40;99.90;;;;;;5075121;28;20229;-47
2023/05/22 11:37:05;;;;;;;56.47;37.60;;;21.60;99.90;;;;;;5074226;28;20577;-50
2023/05/22 11:39:31;;;;;;;50.30;36.35;;;21.80;99.90;;;;;;5074069;28;20178;-49
2023/05/22 11:41:57;;;;;;;47.58;36.42;;;;;;;;;;5074053;28;20640;-47
2023/05/22 11:44:26;;;;;;;49.30;34.20;;;22.10;99.90;;;;;;5074242;28;20178;-48
2023/05/22 11:46:53;;;;;;;51.05;37.03;;;22.10;99.90;;;;;;5074511;28;20235;-48
2023/05/22 11:49:22;;;;;;;54.42;35.80;;;22.00;99.90;;;;;;5074106;28;20716;-48
2023/05/22 11:51:48;;;;;;;54.20;38.03;;;22.20;99.90;;;;;;5074313;28;20173;-48
2023/05/22 11:54:17;;;;;;;49.10;36.60;;;22.30;99.90;;;;;;5074364;28;20189;-48
2023/05/22 11:56:43;;;;;;;47.60;35.40;;;22.40;99.90;;;;;;5074620;28;20246;-47
2023/05/22 11:59:08;;;;;;;52.55;36.50;;;22.10;99.90;;;;;;5073857;28;20161;-45
2023/05/22 12:01:35;;;;;;;51.92;33.70;;;22.30;99.90;;;;;;5073900;28;20165;-45
2023/05/22 12:04:01;;;;;;;47.80;34.42;;;;;;;;;;5073762;28;20646;-46
2023/05/22 12:06:27;;;;;;;47.75;34.17;;;22.00;99.90;;;;;;5072267;28;20255;-46
2023/05/22 12:08:53;;;;;;;50.03;33.85;;;22.20;99.90;;;;;;5073679;28;20189;-46
2023/05/22 12:11:18;;;;;;;52.25;33.45;;;22.00;99.90;;;;;;5073439;28;20177;-46
2023/05/22 12:13:44;;;;;;;52.97;33.53;;;;;;;;;;5073208;28;20173;-46
2023/05/22 12:16:23;;;;;;;47.20;34.00;;;22.20;99.90;;;;;;5073907;28;20568;-45
2023/05/22 12:18:53;;;;;;;48.50;33.72;;;22.00;99.90;;;;;;5073653;28;20180;-46
2023/05/22 12:21:19;;;;;;;45.35;30.30;;;22.00;99.90;;;;;;5073143;28;20169;-46
2023/05/22 12:23:49;;;;;;;49.78;33.90;;;22.30;99.90;;;;;;5072748;28;20714;-47
2023/05/22 12:26:16;;;;;;;49.45;34.65;;;22.40;99.90;;;;;;5073521;28;20168;-46
2023/05/22 12:28:41;;;;;;;46.83;33.53;;;22.30;99.90;;;;;;5073044;28;20166;-46
2023/05/22 12:31:07;;;;;;;47.20;31.25;;;22.20;99.90;;;;;;5073053;28;20169;-46
2023/05/22 12:33:33;;;;;;;46.50;33.30;;;22.50;99.90;;;;;;5072749;28;20173;-46
2023/05/22 12:35:58;;;;;;;52.58;35.63;;;22.60;99.90;;;;;;5072915;28;20317;-46